createdAt,value
2023-05-04T00:05:10.506Z,24.00
2023-05-04T00:15:14.128Z,20.00
2023-05-04T00:25:21.330Z,18.80
2023-05-04T00:35:25.463Z,18.80
2023-05-04T00:45:29.694Z,14.40
2023-05-04T00:55:41.661Z,10.90
2023-05-04T01:06:16.494Z,11.80
2023-05-04T01:16:22.127Z,14.40
2023-05-04T01:26:31.774Z,17.40
2023-05-04T01:36:36.469Z,23.60
2023-05-04T01:46:43.249Z,22.30
2023-05-04T01:56:48.965Z,24.10
2023-05-04T02:06:52.802Z,22.40
2023-05-04T02:16:56.579Z,21.60
2023-05-04T02:27:00.234Z,18.40
2023-05-04T02:37:07.085Z,39.40
2023-05-04T02:47:13.654Z,24.20
2023-05-04T02:57:18.250Z,22.40
2023-05-04T03:07:21.954Z,22.60
2023-05-04T03:17:27.216Z,31.70
2023-05-04T03:27:32.825Z,18.80
2023-05-04T03:37:36.581Z,14.10
2023-05-04T03:47:42.343Z,22.80
2023-05-04T03:57:46.345Z,18.10
2023-05-04T04:07:50.581Z,22.10
2023-05-04T04:17:58.375Z,42.20
2023-05-04T04:28:02.231Z,30.70
2023-05-04T04:38:07.683Z,21.70
2023-05-04T04:48:13.628Z,26.20
2023-05-04T04:58:17.200Z,20.50
2023-05-04T05:08:23.561Z,19.10
2023-05-04T05:18:27.434Z,11.00
2023-05-04T05:28:32.711Z,9.70
2023-05-04T05:38:37.350Z,9.50
2023-05-04T05:48:41.518Z,17.10
2023-05-04T05:58:46.713Z,6.60
2023-05-04T06:08:50.411Z,7.20
2023-05-04T06:18:53.979Z,5.70
2023-05-04T06:28:59.508Z,5.90
2023-05-04T06:39:03.191Z,7.50
2023-05-04T06:49:07.070Z,6.00
2023-05-04T06:59:10.821Z,5.90
2023-05-04T07:09:18.807Z,6.90
2023-05-04T07:19:22.524Z,5.10
2023-05-04T07:29:26.752Z,5.20
2023-05-04T07:39:30.537Z,4.20
2023-05-04T07:49:34.585Z,4.50
2023-05-04T07:59:38.229Z,3.30
2023-05-04T08:09:41.938Z,3.60
2023-05-04T08:19:48.330Z,5.50
2023-05-04T08:29:52.292Z,5.20
2023-05-04T08:39:57.915Z,2.90
2023-05-04T08:50:03.665Z,3.70
2023-05-04T09:00:11.325Z,3.80
2023-05-04T09:10:17.040Z,4.10
2023-05-04T09:20:21.701Z,3.00
2023-05-04T09:30:25.442Z,3.90
2023-05-04T09:40:32.910Z,3.30
2023-05-04T09:50:38.270Z,4.50
2023-05-04T10:00:42.969Z,4.20
2023-05-04T10:10:46.788Z,3.80
2023-05-04T10:21:03.043Z,3.90
2023-05-04T10:31:07.647Z,9.20
2023-05-04T10:41:19.870Z,3.90
2023-05-04T10:51:32.623Z,2.90
2023-05-04T11:01:47.624Z,4.20
2023-05-04T11:11:53.974Z,3.60
2023-05-04T11:21:58.231Z,3.50
2023-05-04T11:32:01.936Z,3.80
2023-05-04T11:42:10.768Z,10.70
2023-05-04T11:52:14.943Z,3.60
2023-05-04T12:02:19.022Z,5.30
2023-05-04T12:12:36.065Z,3.70
2023-05-04T12:22:39.785Z,9.50
2023-05-04T12:32:44.193Z,3.60
2023-05-04T12:42:48.120Z,4.20
2023-05-04T12:52:51.664Z,3.80
2023-05-04T13:02:55.208Z,4.20
2023-05-04T13:12:58.899Z,4.60
2023-05-04T13:23:04.478Z,4.00
2023-05-04T13:33:20.610Z,3.50
2023-05-04T13:43:32.109Z,4.00
2023-05-04T13:53:35.850Z,5.00
2023-05-04T14:03:39.453Z,4.10
2023-05-04T14:13:44.784Z,4.60
2023-05-04T14:23:48.498Z,4.30
2023-05-04T14:33:52.403Z,4.30
2023-05-04T14:44:00.627Z,4.00
2023-05-04T14:54:04.493Z,4.80
2023-05-04T15:04:08.181Z,4.30
2023-05-04T15:14:15.717Z,5.40
2023-05-04T15:24:19.325Z,4.70
2023-05-04T15:34:22.865Z,4.10
2023-05-04T15:44:29.866Z,5.10
2023-05-04T15:54:33.802Z,4.00
2023-05-04T16:04:38.786Z,5.30
2023-05-04T16:14:44.125Z,5.10
2023-05-04T16:24:50.293Z,4.90
2023-05-04T16:34:53.947Z,5.90
2023-05-04T16:44:58.795Z,7.10
2023-05-04T16:55:02.630Z,15.00
2023-05-04T17:05:10.627Z,6.90
2023-05-04T17:15:14.387Z,8.60
2023-05-04T17:25:20.563Z,9.20
2023-05-04T17:35:26.208Z,7.20
2023-05-04T17:45:30.440Z,6.40
2023-05-04T17:55:36.124Z,18.10
2023-05-04T18:05:43.922Z,15.70
2023-05-04T18:15:47.865Z,21.60
2023-05-04T18:25:51.562Z,11.70
2023-05-04T18:35:55.345Z,9.70
2023-05-04T18:46:10.144Z,6.50
2023-05-04T18:56:13.942Z,8.90
2023-05-04T19:06:17.714Z,11.60
2023-05-04T19:16:22.854Z,7.10
2023-05-04T19:26:28.881Z,7.60
2023-05-04T19:36:34.802Z,7.00
2023-05-04T19:46:41.704Z,6.60
2023-05-04T19:56:45.414Z,8.30
2023-05-04T20:06:49.167Z,10.80
2023-05-04T20:16:56.014Z,10.80
2023-05-04T20:27:00.412Z,7.10
2023-05-04T20:37:03.994Z,9.50
2023-05-04T20:47:10.846Z,11.50
2023-05-04T20:57:14.606Z,11.90
2023-05-04T21:07:18.460Z,12.80
2023-05-04T21:17:25.774Z,6.30
2023-05-04T21:27:33.504Z,5.80
2023-05-04T21:37:37.499Z,7.80
2023-05-04T21:47:41.109Z,5.70
2023-05-04T21:57:46.697Z,6.50
2023-05-04T22:07:50.662Z,6.40
2023-05-04T22:17:59.389Z,6.00
2023-05-04T22:28:03.867Z,7.70
2023-05-04T22:39:11.326Z,47.90
2023-05-04T22:49:17.672Z,6.30
2023-05-04T22:59:21.269Z,6.60
2023-05-04T23:09:24.921Z,6.80
2023-05-04T23:19:32.065Z,7.40
2023-05-04T23:29:35.808Z,7.60
2023-05-04T23:39:40.291Z,9.40
2023-05-04T23:49:47.407Z,8.10
2023-05-04T23:59:52.583Z,7.20
